CCA1535 ZSWZ-ZUGY
Flight info
| Callsign | CCA1535 |
|---|---|
| Flight time | 2h 24m |
| Altitude | 36100 |
| Route | BZ SHR PULES W46 LLC W194 NOMUK A581 MEMAG |
| Aircraft | A339/H-SADE1E2E3GHIJ1J3J5M1P2RWXY/LB1 |
Departure
| Time | 2026-04-12 09:30 |
|---|---|
| Airport | Wenzhou Longwan International Airport (ZSWZ) |
Arrival
| Time | 2026-04-12 11:54 |
|---|---|
| Airport | Guiyang Longdongbao International Airport (ZUGY) |
| Time | Latitude | Longitude | Altitude | Speed | Heading |
|---|---|---|---|---|---|
| 2026-04-12 09:07 | 27.91097 | 120.84933 | 33 ft | 0 kts | 27° |
| 2026-04-12 09:18 | 27.91096 | 120.84932 | 33 ft | 1 kts | 27° |
| 2026-04-12 09:19 | 27.91083 | 120.84924 | 33 ft | 2 kts | 27° |
| 2026-04-12 09:19 | 27.91069 | 120.84917 | 33 ft | 2 kts | 27° |
| 2026-04-12 09:19 | 27.91055 | 120.84908 | 33 ft | 2 kts | 27° |
| 2026-04-12 09:20 | 27.91034 | 120.84886 | 33 ft | 2 kts | 72° |
| 2026-04-12 09:20 | 27.91032 | 120.84869 | 33 ft | 2 kts | 97° |
| 2026-04-12 09:20 | 27.91038 | 120.84850 | 33 ft | 0 kts | 118° |
| 2026-04-12 09:21 | 27.91038 | 120.84851 | 33 ft | 0 kts | 118° |
| 2026-04-12 09:23 | 27.91034 | 120.84857 | 33 ft | 2 kts | 118° |
| 2026-04-12 09:23 | 27.91025 | 120.84879 | 33 ft | 4 kts | 117° |
| 2026-04-12 09:23 | 27.91008 | 120.84914 | 33 ft | 6 kts | 118° |
| 2026-04-12 09:23 | 27.90989 | 120.84953 | 33 ft | 1 kts | 118° |
| 2026-04-12 09:24 | 27.90987 | 120.84972 | 33 ft | 3 kts | 82° |
| 2026-04-12 09:24 | 27.91001 | 120.85001 | 33 ft | 5 kts | 43° |
| 2026-04-12 09:24 | 27.91041 | 120.85030 | 33 ft | 8 kts | 28° |
| 2026-04-12 09:24 | 27.91109 | 120.85070 | 33 ft | 13 kts | 28° |
| 2026-04-12 09:25 | 27.91207 | 120.85130 | 33 ft | 17 kts | 28° |
| 2026-04-12 09:25 | 27.91318 | 120.85197 | 33 ft | 18 kts | 28° |
| 2026-04-12 09:25 | 27.91430 | 120.85265 | 33 ft | 18 kts | 28° |
| 2026-04-12 09:25 | 27.91542 | 120.85332 | 33 ft | 18 kts | 28° |
| 2026-04-12 09:26 | 27.91654 | 120.85400 | 33 ft | 18 kts | 28° |
| 2026-04-12 09:26 | 27.91768 | 120.85470 | 33 ft | 18 kts | 28° |
| 2026-04-12 09:26 | 27.91883 | 120.85539 | 33 ft | 18 kts | 28° |
| 2026-04-12 09:26 | 27.91999 | 120.85609 | 33 ft | 18 kts | 28° |
| 2026-04-12 09:27 | 27.92114 | 120.85679 | 33 ft | 18 kts | 28° |
| 2026-04-12 09:27 | 27.92188 | 120.85724 | 33 ft | 4 kts | 28° |
| 2026-04-12 09:27 | 27.92202 | 120.85738 | 33 ft | 3 kts | 56° |
| 2026-04-12 09:27 | 27.92204 | 120.85770 | 33 ft | 5 kts | 99° |
| 2026-04-12 09:28 | 27.92188 | 120.85816 | 33 ft | 7 kts | 117° |
| 2026-04-12 09:28 | 27.92161 | 120.85873 | 33 ft | 9 kts | 118° |
| 2026-04-12 09:28 | 27.92129 | 120.85938 | 33 ft | 8 kts | 120° |
| 2026-04-12 09:28 | 27.92111 | 120.85964 | 33 ft | 3 kts | 148° |
| 2026-04-12 09:29 | 27.92088 | 120.85964 | 33 ft | 4 kts | 198° |
| 2026-04-12 09:29 | 27.92053 | 120.85944 | 33 ft | 7 kts | 208° |
| 2026-04-12 09:29 | 27.91882 | 120.85841 | 33 ft | 59 kts | 208° |
| 2026-04-12 09:29 | 27.91327 | 120.85506 | 33 ft | 119 kts | 208° |
| 2026-04-12 09:30 | 27.90426 | 120.84963 | 68 ft | 165 kts | 207° |
| 2026-04-12 09:30 | 27.89405 | 120.84344 | 638 ft | 164 kts | 208° |
| 2026-04-12 09:30 | 27.88427 | 120.83758 | 1330 ft | 158 kts | 209° |
| 2026-04-12 09:30 | 27.87461 | 120.83177 | 1911 ft | 155 kts | 210° |
| 2026-04-12 09:31 | 27.86519 | 120.82613 | 2359 ft | 156 kts | 211° |
| 2026-04-12 09:31 | 27.85545 | 120.82027 | 2766 ft | 159 kts | 211° |
| 2026-04-12 09:31 | 27.84551 | 120.81426 | 3165 ft | 163 kts | 211° |
| 2026-04-12 09:31 | 27.83519 | 120.80800 | 3454 ft | 176 kts | 211° |
| 2026-04-12 09:32 | 27.82371 | 120.80107 | 3754 ft | 191 kts | 211° |
| 2026-04-12 09:32 | 27.81159 | 120.79378 | 4049 ft | 207 kts | 211° |
| 2026-04-12 09:32 | 27.79827 | 120.78575 | 4348 ft | 224 kts | 212° |
| 2026-04-12 09:32 | 27.78397 | 120.77711 | 4685 ft | 242 kts | 212° |
| 2026-04-12 09:33 | 27.76762 | 120.76995 | 5052 ft | 263 kts | 187° |
| 2026-04-12 09:33 | 27.74937 | 120.77354 | 5652 ft | 273 kts | 152° |
| 2026-04-12 09:33 | 27.73558 | 120.78777 | 6327 ft | 274 kts | 118° |
| 2026-04-12 09:33 | 27.73062 | 120.80829 | 6945 ft | 272 kts | 83° |
| 2026-04-12 09:34 | 27.73614 | 120.82828 | 7503 ft | 268 kts | 50° |
| 2026-04-12 09:34 | 27.74980 | 120.84167 | 8087 ft | 260 kts | 18° |
| 2026-04-12 09:34 | 27.76709 | 120.84590 | 8689 ft | 256 kts | 360° |
| 2026-04-12 09:34 | 27.78504 | 120.84756 | 9294 ft | 261 kts | 359° |
| 2026-04-12 09:35 | 27.80353 | 120.84940 | 9928 ft | 266 kts | 359° |
| 2026-04-12 09:35 | 27.82186 | 120.85144 | 10534 ft | 269 kts | 359° |
| 2026-04-12 09:35 | 27.84098 | 120.85368 | 11104 ft | 274 kts | 0° |
| 2026-04-12 09:35 | 27.86016 | 120.85602 | 11679 ft | 278 kts | 0° |
| 2026-04-12 09:36 | 27.87958 | 120.85844 | 12274 ft | 282 kts | 0° |
| 2026-04-12 09:36 | 27.89945 | 120.85935 | 12849 ft | 279 kts | 344° |
| 2026-04-12 09:36 | 27.91708 | 120.85160 | 13391 ft | 271 kts | 319° |
| 2026-04-12 09:36 | 27.92998 | 120.83621 | 13860 ft | 270 kts | 295° |
| 2026-04-12 09:37 | 27.93607 | 120.81612 | 14135 ft | 280 kts | 277° |
| 2026-04-12 09:37 | 27.93893 | 120.79376 | 14399 ft | 295 kts | 276° |
| 2026-04-12 09:37 | 27.94204 | 120.77000 | 14649 ft | 311 kts | 276° |
| 2026-04-12 09:37 | 27.94533 | 120.74543 | 14913 ft | 326 kts | 276° |
| 2026-04-12 09:38 | 27.94880 | 120.71955 | 15219 ft | 338 kts | 276° |
| 2026-04-12 09:38 | 27.95235 | 120.69324 | 15765 ft | 342 kts | 276° |
| 2026-04-12 09:38 | 27.95597 | 120.66653 | 16373 ft | 344 kts | 275° |
| 2026-04-12 09:38 | 27.95962 | 120.63966 | 16973 ft | 346 kts | 275° |
| 2026-04-12 09:39 | 27.96330 | 120.61262 | 17537 ft | 348 kts | 275° |
| 2026-04-12 09:39 | 27.96698 | 120.58570 | 18101 ft | 350 kts | 275° |
| 2026-04-12 09:39 | 27.97063 | 120.55865 | 18662 ft | 351 kts | 275° |
| 2026-04-12 09:39 | 27.97435 | 120.53118 | 19242 ft | 352 kts | 275° |
| 2026-04-12 09:40 | 27.97799 | 120.50412 | 19782 ft | 353 kts | 275° |
| 2026-04-12 09:40 | 27.98169 | 120.47672 | 20309 ft | 353 kts | 275° |
| 2026-04-12 09:40 | 27.98539 | 120.44928 | 20846 ft | 354 kts | 275° |
| 2026-04-12 09:40 | 27.98908 | 120.42174 | 21357 ft | 354 kts | 275° |
| 2026-04-12 09:41 | 27.99280 | 120.39404 | 21845 ft | 355 kts | 275° |
| 2026-04-12 09:41 | 27.99648 | 120.36661 | 22299 ft | 355 kts | 275° |
| 2026-04-12 09:41 | 28.00018 | 120.33882 | 22788 ft | 356 kts | 274° |
| 2026-04-12 09:41 | 28.00384 | 120.31126 | 23246 ft | 358 kts | 275° |
| 2026-04-12 09:42 | 28.00758 | 120.28312 | 23668 ft | 360 kts | 275° |
| 2026-04-12 09:42 | 28.01132 | 120.25502 | 24111 ft | 363 kts | 275° |
| 2026-04-12 09:42 | 28.01502 | 120.22707 | 24538 ft | 365 kts | 275° |
| 2026-04-12 09:43 | 28.02642 | 120.14109 | 25775 ft | 372 kts | 275° |
| 2026-04-12 09:43 | 28.03023 | 120.11221 | 26178 ft | 374 kts | 275° |
| 2026-04-12 09:43 | 28.03411 | 120.08266 | 26565 ft | 376 kts | 275° |
| 2026-04-12 09:44 | 28.03799 | 120.05329 | 26940 ft | 379 kts | 275° |
| 2026-04-12 09:44 | 28.04188 | 120.02365 | 27307 ft | 381 kts | 275° |
| 2026-04-12 09:44 | 28.04576 | 119.99406 | 27664 ft | 383 kts | 276° |
| 2026-04-12 09:44 | 28.04964 | 119.96441 | 28043 ft | 385 kts | 276° |
| 2026-04-12 09:45 | 28.05360 | 119.93420 | 28403 ft | 387 kts | 276° |
| 2026-04-12 09:45 | 28.05751 | 119.90412 | 28735 ft | 389 kts | 276° |
| 2026-04-12 09:45 | 28.06147 | 119.87380 | 29070 ft | 391 kts | 276° |
| 2026-04-12 09:45 | 28.06546 | 119.84307 | 29398 ft | 394 kts | 276° |
| 2026-04-12 09:46 | 28.06943 | 119.81258 | 29701 ft | 396 kts | 276° |
| 2026-04-12 09:46 | 28.07345 | 119.78143 | 29981 ft | 399 kts | 276° |
| 2026-04-12 09:46 | 28.07747 | 119.75043 | 30274 ft | 402 kts | 276° |
| 2026-04-12 09:46 | 28.08152 | 119.71892 | 30578 ft | 404 kts | 276° |
| 2026-04-12 09:47 | 28.08553 | 119.68768 | 30861 ft | 406 kts | 276° |
| 2026-04-12 09:47 | 28.08964 | 119.65572 | 31136 ft | 408 kts | 276° |
| 2026-04-12 09:47 | 28.09370 | 119.62402 | 31401 ft | 411 kts | 276° |
| 2026-04-12 09:47 | 28.09782 | 119.59178 | 31674 ft | 413 kts | 276° |
| 2026-04-12 09:48 | 28.10264 | 119.55978 | 31951 ft | 416 kts | 278° |
| 2026-04-12 09:48 | 28.10882 | 119.52753 | 32305 ft | 416 kts | 280° |
| 2026-04-12 09:48 | 28.11523 | 119.49595 | 32726 ft | 415 kts | 280° |
| 2026-04-12 09:48 | 28.12167 | 119.46430 | 33167 ft | 413 kts | 280° |
| 2026-04-12 09:49 | 28.12813 | 119.43246 | 33596 ft | 412 kts | 280° |
| 2026-04-12 09:49 | 28.13454 | 119.40091 | 34035 ft | 411 kts | 280° |
| 2026-04-12 09:49 | 28.14087 | 119.36970 | 34440 ft | 410 kts | 280° |
| 2026-04-12 09:49 | 28.14731 | 119.33786 | 34836 ft | 410 kts | 279° |
| 2026-04-12 09:50 | 28.15360 | 119.30679 | 35265 ft | 409 kts | 279° |
| 2026-04-12 09:50 | 28.16000 | 119.27512 | 35685 ft | 407 kts | 279° |
| 2026-04-12 09:50 | 28.16626 | 119.24410 | 36057 ft | 407 kts | 279° |
| 2026-04-12 09:50 | 28.17260 | 119.21263 | 36371 ft | 407 kts | 279° |
| 2026-04-12 09:51 | 28.17890 | 119.18134 | 36631 ft | 409 kts | 279° |
| 2026-04-12 09:51 | 28.18520 | 119.14996 | 36867 ft | 410 kts | 279° |
| 2026-04-12 09:51 | 28.19155 | 119.11839 | 37101 ft | 412 kts | 280° |
| 2026-04-12 09:51 | 28.19783 | 119.08704 | 37331 ft | 413 kts | 280° |
| 2026-04-12 09:52 | 28.20419 | 119.05531 | 37564 ft | 414 kts | 279° |
| 2026-04-12 09:52 | 28.21058 | 119.02342 | 37789 ft | 416 kts | 280° |
| 2026-04-12 09:52 | 28.21705 | 118.99106 | 37991 ft | 417 kts | 279° |
| 2026-04-12 09:53 | 28.22983 | 118.92697 | 38044 ft | 419 kts | 279° |
| 2026-04-12 09:53 | 28.24264 | 118.86256 | 38055 ft | 418 kts | 280° |
| 2026-04-12 09:54 | 28.25548 | 118.79790 | 38065 ft | 418 kts | 279° |
| 2026-04-12 09:54 | 28.26815 | 118.73390 | 38072 ft | 418 kts | 279° |
| 2026-04-12 09:55 | 28.28086 | 118.66943 | 38050 ft | 417 kts | 280° |
| 2026-04-12 09:55 | 28.29353 | 118.60509 | 38027 ft | 418 kts | 279° |
| 2026-04-12 09:56 | 28.30607 | 118.54124 | 38006 ft | 417 kts | 279° |
| 2026-04-12 09:56 | 28.31868 | 118.47685 | 37986 ft | 417 kts | 279° |
| 2026-04-12 09:57 | 28.33126 | 118.41242 | 38240 ft | 418 kts | 280° |
| 2026-04-12 09:57 | 28.33748 | 118.38063 | 38573 ft | 416 kts | 280° |
| 2026-04-12 09:57 | 28.34380 | 118.34826 | 38902 ft | 415 kts | 279° |
| 2026-04-12 09:57 | 28.35000 | 118.31636 | 39170 ft | 415 kts | 279° |
| 2026-04-12 09:58 | 28.35616 | 118.28464 | 39436 ft | 415 kts | 279° |
| 2026-04-12 09:58 | 28.36237 | 118.25262 | 39701 ft | 415 kts | 279° |
| 2026-04-12 09:58 | 28.36856 | 118.22065 | 39931 ft | 415 kts | 279° |
| 2026-04-12 09:59 | 28.38088 | 118.15668 | 39960 ft | 415 kts | 279° |
| 2026-04-12 09:59 | 28.39322 | 118.09255 | 39966 ft | 415 kts | 279° |
| 2026-04-12 10:00 | 28.40524 | 118.02893 | 39959 ft | 414 kts | 278° |
| 2026-04-12 10:00 | 28.41333 | 117.96446 | 39962 ft | 412 kts | 273° |
| 2026-04-12 10:01 | 28.41611 | 117.89927 | 39959 ft | 412 kts | 268° |
| 2026-04-12 10:01 | 28.41587 | 117.83467 | 39958 ft | 411 kts | 268° |
| 2026-04-12 10:02 | 28.41553 | 117.76977 | 39961 ft | 411 kts | 268° |
| 2026-04-12 10:02 | 28.41514 | 117.70489 | 39959 ft | 411 kts | 268° |
| 2026-04-12 10:03 | 28.41470 | 117.63985 | 39953 ft | 412 kts | 268° |
| 2026-04-12 10:03 | 28.41423 | 117.57492 | 39951 ft | 411 kts | 268° |
| 2026-04-12 10:04 | 28.41372 | 117.50992 | 39949 ft | 412 kts | 268° |
| 2026-04-12 10:04 | 28.41318 | 117.44489 | 39943 ft | 412 kts | 268° |
| 2026-04-12 10:05 | 28.41260 | 117.38014 | 39946 ft | 411 kts | 268° |
| 2026-04-12 10:05 | 28.41201 | 117.31508 | 39945 ft | 412 kts | 268° |
| 2026-04-12 10:06 | 28.41136 | 117.25015 | 39942 ft | 411 kts | 268° |
| 2026-04-12 10:06 | 28.41071 | 117.18562 | 39939 ft | 412 kts | 268° |
| 2026-04-12 10:07 | 28.41003 | 117.12073 | 39940 ft | 411 kts | 268° |
| 2026-04-12 10:07 | 28.40929 | 117.05550 | 39941 ft | 411 kts | 268° |
| 2026-04-12 10:08 | 28.40854 | 116.99063 | 39940 ft | 412 kts | 268° |
| 2026-04-12 10:08 | 28.40774 | 116.92574 | 39937 ft | 411 kts | 268° |
| 2026-04-12 10:09 | 28.40693 | 116.86079 | 39936 ft | 411 kts | 268° |
| 2026-04-12 10:09 | 28.40608 | 116.79583 | 39931 ft | 411 kts | 268° |
| 2026-04-12 10:10 | 28.40520 | 116.73099 | 39930 ft | 411 kts | 268° |
| 2026-04-12 10:10 | 28.40430 | 116.66600 | 39922 ft | 411 kts | 268° |
| 2026-04-12 10:11 | 28.40334 | 116.60152 | 39929 ft | 411 kts | 268° |
| 2026-04-12 10:11 | 28.40239 | 116.53682 | 39921 ft | 411 kts | 268° |
| 2026-04-12 10:12 | 28.40138 | 116.47206 | 39927 ft | 411 kts | 268° |
| 2026-04-12 10:12 | 28.40035 | 116.40718 | 39923 ft | 411 kts | 268° |
| 2026-04-12 10:13 | 28.39929 | 116.34236 | 39923 ft | 411 kts | 267° |
| 2026-04-12 10:13 | 28.39819 | 116.27750 | 39924 ft | 410 kts | 267° |
| 2026-04-12 10:14 | 28.39708 | 116.21266 | 39927 ft | 410 kts | 267° |
| 2026-04-12 10:14 | 28.39591 | 116.14805 | 39914 ft | 409 kts | 267° |
| 2026-04-12 10:15 | 28.39473 | 116.08340 | 39920 ft | 409 kts | 267° |
| 2026-04-12 10:15 | 28.39351 | 116.01899 | 39915 ft | 410 kts | 267° |
| 2026-04-12 10:16 | 28.39229 | 115.95456 | 39919 ft | 410 kts | 267° |
| 2026-04-12 10:16 | 28.39100 | 115.89014 | 39917 ft | 410 kts | 267° |
| 2026-04-12 10:17 | 28.38968 | 115.82552 | 39915 ft | 409 kts | 267° |
| 2026-04-12 10:17 | 28.38835 | 115.76076 | 39915 ft | 409 kts | 267° |
| 2026-04-12 10:18 | 28.38698 | 115.69629 | 39914 ft | 409 kts | 267° |
| 2026-04-12 10:18 | 28.38558 | 115.63197 | 39918 ft | 409 kts | 267° |
| 2026-04-12 10:19 | 28.38191 | 115.56777 | 39915 ft | 408 kts | 263° |
| 2026-04-12 10:19 | 28.37379 | 115.50392 | 39913 ft | 408 kts | 261° |
| 2026-04-12 10:20 | 28.36518 | 115.44066 | 39921 ft | 408 kts | 261° |
| 2026-04-12 10:20 | 28.35643 | 115.37711 | 39918 ft | 407 kts | 261° |
| 2026-04-12 10:21 | 28.34763 | 115.31358 | 39920 ft | 407 kts | 261° |
| 2026-04-12 10:21 | 28.33873 | 115.25017 | 39925 ft | 406 kts | 260° |
| 2026-04-12 10:22 | 28.32938 | 115.18713 | 39917 ft | 406 kts | 260° |
| 2026-04-12 10:22 | 28.31994 | 115.12379 | 39922 ft | 407 kts | 260° |
| 2026-04-12 10:23 | 28.31051 | 115.06050 | 39918 ft | 407 kts | 260° |
| 2026-04-12 10:23 | 28.30100 | 114.99709 | 39917 ft | 406 kts | 260° |
| 2026-04-12 10:24 | 28.29231 | 114.93418 | 39915 ft | 406 kts | 261° |
| 2026-04-12 10:24 | 28.28376 | 114.87086 | 39927 ft | 407 kts | 261° |
| 2026-04-12 10:25 | 28.27508 | 114.80708 | 39919 ft | 407 kts | 261° |
| 2026-04-12 10:25 | 28.26642 | 114.74377 | 39924 ft | 407 kts | 261° |
| 2026-04-12 10:26 | 28.25769 | 114.68043 | 39920 ft | 407 kts | 261° |
| 2026-04-12 10:26 | 28.24894 | 114.61700 | 39920 ft | 408 kts | 260° |
| 2026-04-12 10:27 | 28.24016 | 114.55385 | 39929 ft | 408 kts | 261° |
| 2026-04-12 10:27 | 28.23130 | 114.49024 | 39935 ft | 408 kts | 260° |
| 2026-04-12 10:28 | 28.22245 | 114.42696 | 39944 ft | 409 kts | 260° |
| 2026-04-12 10:28 | 28.21352 | 114.36336 | 39943 ft | 409 kts | 261° |
| 2026-04-12 10:29 | 28.20494 | 114.29965 | 39955 ft | 409 kts | 260° |
| 2026-04-12 10:29 | 28.19665 | 114.23576 | 39953 ft | 409 kts | 260° |
| 2026-04-12 10:30 | 28.18830 | 114.17199 | 39955 ft | 410 kts | 261° |
| 2026-04-12 10:30 | 28.17994 | 114.10869 | 39955 ft | 409 kts | 260° |
| 2026-04-12 10:31 | 28.17148 | 114.04472 | 39949 ft | 409 kts | 261° |
| 2026-04-12 10:31 | 28.16300 | 113.98107 | 39959 ft | 410 kts | 260° |
| 2026-04-12 10:32 | 28.15448 | 113.91727 | 39939 ft | 410 kts | 260° |
| 2026-04-12 10:32 | 28.14593 | 113.85352 | 39947 ft | 409 kts | 260° |
| 2026-04-12 10:33 | 28.13732 | 113.78959 | 39939 ft | 409 kts | 260° |
| 2026-04-12 10:33 | 28.12867 | 113.72560 | 39936 ft | 409 kts | 260° |
| 2026-04-12 10:34 | 28.12006 | 113.66218 | 39931 ft | 410 kts | 260° |
| 2026-04-12 10:34 | 28.11134 | 113.59847 | 39936 ft | 409 kts | 260° |
| 2026-04-12 10:35 | 28.10264 | 113.53462 | 39940 ft | 409 kts | 261° |
| 2026-04-12 10:35 | 28.09434 | 113.47121 | 39937 ft | 410 kts | 260° |
| 2026-04-12 10:36 | 28.08584 | 113.40733 | 39937 ft | 409 kts | 261° |
| 2026-04-12 10:36 | 28.07667 | 113.34352 | 39940 ft | 409 kts | 259° |
| 2026-04-12 10:37 | 28.06697 | 113.28026 | 39932 ft | 409 kts | 259° |
| 2026-04-12 10:37 | 28.05726 | 113.21695 | 39928 ft | 409 kts | 259° |
| 2026-04-12 10:38 | 28.04759 | 113.15372 | 39929 ft | 409 kts | 259° |
| 2026-04-12 10:38 | 28.03780 | 113.09013 | 39923 ft | 409 kts | 259° |
| 2026-04-12 10:39 | 28.02843 | 113.02668 | 39924 ft | 409 kts | 261° |
| 2026-04-12 10:39 | 28.02328 | 112.96275 | 39924 ft | 410 kts | 265° |
| 2026-04-12 10:40 | 28.02335 | 112.89812 | 39920 ft | 411 kts | 270° |
| 2026-04-12 10:40 | 28.02737 | 112.83353 | 39922 ft | 411 kts | 271° |
| 2026-04-12 10:41 | 28.03166 | 112.76910 | 39921 ft | 411 kts | 271° |
| 2026-04-12 10:41 | 28.03596 | 112.70467 | 39916 ft | 411 kts | 271° |
| 2026-04-12 10:42 | 28.04028 | 112.64010 | 39923 ft | 410 kts | 272° |
| 2026-04-12 10:42 | 28.04455 | 112.57582 | 39926 ft | 410 kts | 272° |
| 2026-04-12 10:43 | 28.05089 | 112.47959 | 39931 ft | 408 kts | 271° |
| 2026-04-12 10:43 | 28.05504 | 112.41559 | 39931 ft | 408 kts | 272° |
| 2026-04-12 10:44 | 28.05919 | 112.35152 | 39930 ft | 408 kts | 272° |
| 2026-04-12 10:44 | 28.06834 | 112.28841 | 39939 ft | 411 kts | 281° |
| 2026-04-12 10:45 | 28.08293 | 112.22572 | 39939 ft | 412 kts | 281° |
| 2026-04-12 10:45 | 28.09758 | 112.16293 | 39941 ft | 411 kts | 281° |
| 2026-04-12 10:46 | 28.11209 | 112.10056 | 39946 ft | 410 kts | 280° |
| 2026-04-12 10:46 | 28.12651 | 112.03827 | 39954 ft | 409 kts | 280° |
| 2026-04-12 10:47 | 28.14094 | 111.97590 | 39955 ft | 409 kts | 280° |
| 2026-04-12 10:47 | 28.15525 | 111.91380 | 39962 ft | 409 kts | 281° |
| 2026-04-12 10:48 | 28.16956 | 111.85156 | 39965 ft | 408 kts | 280° |
| 2026-04-12 10:48 | 28.18384 | 111.78934 | 39961 ft | 409 kts | 280° |
| 2026-04-12 10:49 | 28.19805 | 111.72726 | 39969 ft | 409 kts | 281° |
| 2026-04-12 10:49 | 28.21232 | 111.66483 | 39964 ft | 408 kts | 280° |
| 2026-04-12 10:50 | 28.22651 | 111.60254 | 39965 ft | 408 kts | 280° |
| 2026-04-12 10:50 | 28.24057 | 111.54075 | 39970 ft | 408 kts | 280° |
| 2026-04-12 10:51 | 28.25468 | 111.47849 | 39968 ft | 407 kts | 280° |
| 2026-04-12 10:51 | 28.26883 | 111.41601 | 39972 ft | 408 kts | 280° |
| 2026-04-12 10:52 | 28.28289 | 111.35386 | 39977 ft | 407 kts | 280° |
| 2026-04-12 10:52 | 28.29692 | 111.29147 | 39984 ft | 407 kts | 280° |
| 2026-04-12 10:53 | 28.31081 | 111.22971 | 39984 ft | 406 kts | 280° |
| 2026-04-12 10:53 | 28.32482 | 111.16729 | 39980 ft | 407 kts | 280° |
| 2026-04-12 10:54 | 28.33869 | 111.10526 | 39974 ft | 406 kts | 280° |
| 2026-04-12 10:54 | 28.35259 | 111.04301 | 39969 ft | 407 kts | 279° |
| 2026-04-12 10:55 | 28.36647 | 110.98069 | 39965 ft | 406 kts | 280° |
| 2026-04-12 10:55 | 28.38033 | 110.91837 | 39967 ft | 406 kts | 280° |
| 2026-04-12 10:56 | 28.39411 | 110.85627 | 39969 ft | 406 kts | 280° |
| 2026-04-12 10:56 | 28.40787 | 110.79413 | 39968 ft | 406 kts | 279° |
| 2026-04-12 10:57 | 28.42157 | 110.73192 | 39963 ft | 406 kts | 279° |
| 2026-04-12 10:57 | 28.43528 | 110.66979 | 39960 ft | 405 kts | 279° |
| 2026-04-12 10:58 | 28.44888 | 110.60783 | 39962 ft | 405 kts | 279° |
| 2026-04-12 10:58 | 28.46251 | 110.54562 | 39958 ft | 405 kts | 280° |
| 2026-04-12 10:59 | 28.47603 | 110.48383 | 39954 ft | 405 kts | 279° |
| 2026-04-12 10:59 | 28.48959 | 110.42170 | 39950 ft | 405 kts | 279° |
| 2026-04-12 11:00 | 28.50309 | 110.35966 | 39935 ft | 404 kts | 279° |
| 2026-04-12 11:00 | 28.51647 | 110.29802 | 39935 ft | 405 kts | 279° |
| 2026-04-12 11:01 | 28.52992 | 110.23595 | 39925 ft | 404 kts | 279° |
| 2026-04-12 11:01 | 28.54334 | 110.17386 | 39934 ft | 403 kts | 279° |
| 2026-04-12 11:02 | 28.55667 | 110.11198 | 39938 ft | 404 kts | 279° |
| 2026-04-12 11:02 | 28.57003 | 110.04988 | 39951 ft | 404 kts | 279° |
| 2026-04-12 11:03 | 28.58335 | 109.98775 | 39957 ft | 404 kts | 279° |
| 2026-04-12 11:03 | 28.59654 | 109.92604 | 39951 ft | 403 kts | 279° |
| 2026-04-12 11:04 | 28.60976 | 109.86406 | 39953 ft | 403 kts | 279° |
| 2026-04-12 11:04 | 28.62292 | 109.80227 | 39945 ft | 403 kts | 279° |
| 2026-04-12 11:05 | 28.63388 | 109.73991 | 39943 ft | 401 kts | 273° |
| 2026-04-12 11:05 | 28.63621 | 109.67663 | 39948 ft | 397 kts | 265° |
| 2026-04-12 11:06 | 28.62974 | 109.61440 | 39948 ft | 397 kts | 258° |
| 2026-04-12 11:06 | 28.61464 | 109.55398 | 39948 ft | 397 kts | 250° |
| 2026-04-12 11:07 | 28.59522 | 109.49544 | 39956 ft | 396 kts | 250° |
| 2026-04-12 11:07 | 28.57403 | 109.43765 | 39954 ft | 397 kts | 246° |
| 2026-04-12 11:08 | 28.54952 | 109.38130 | 39955 ft | 398 kts | 245° |
| 2026-04-12 11:08 | 28.52492 | 109.32510 | 39951 ft | 398 kts | 245° |
| 2026-04-12 11:09 | 28.50007 | 109.26846 | 39945 ft | 398 kts | 245° |
| 2026-04-12 11:09 | 28.47535 | 109.21233 | 39944 ft | 398 kts | 245° |
| 2026-04-12 11:10 | 28.45051 | 109.15596 | 39949 ft | 398 kts | 245° |
| 2026-04-12 11:10 | 28.42569 | 109.09990 | 39931 ft | 399 kts | 245° |
| 2026-04-12 11:11 | 28.41311 | 109.07156 | 39709 ft | 400 kts | 245° |
| 2026-04-12 11:11 | 28.40062 | 109.04341 | 39391 ft | 399 kts | 245° |
| 2026-04-12 11:11 | 28.38806 | 109.01510 | 39077 ft | 399 kts | 245° |
| 2026-04-12 11:11 | 28.37556 | 108.98701 | 38768 ft | 398 kts | 245° |
| 2026-04-12 11:12 | 28.36314 | 108.95909 | 38459 ft | 397 kts | 245° |
| 2026-04-12 11:12 | 28.35072 | 108.93124 | 38155 ft | 397 kts | 245° |
| 2026-04-12 11:12 | 28.33815 | 108.90299 | 37861 ft | 397 kts | 245° |
| 2026-04-12 11:12 | 28.32581 | 108.87521 | 37585 ft | 396 kts | 245° |
| 2026-04-12 11:13 | 28.31347 | 108.84759 | 37309 ft | 396 kts | 245° |
| 2026-04-12 11:13 | 28.30099 | 108.81961 | 37028 ft | 396 kts | 245° |
| 2026-04-12 11:13 | 28.28852 | 108.79165 | 36752 ft | 397 kts | 245° |
| 2026-04-12 11:13 | 28.27609 | 108.76383 | 36473 ft | 398 kts | 245° |
| 2026-04-12 11:14 | 28.26353 | 108.73576 | 36189 ft | 398 kts | 245° |
| 2026-04-12 11:14 | 28.25105 | 108.70785 | 35913 ft | 398 kts | 244° |
| 2026-04-12 11:14 | 28.23846 | 108.67974 | 35631 ft | 397 kts | 245° |
| 2026-04-12 11:14 | 28.22603 | 108.65198 | 35360 ft | 397 kts | 245° |
| 2026-04-12 11:15 | 28.21343 | 108.62389 | 35075 ft | 398 kts | 244° |
| 2026-04-12 11:15 | 28.20090 | 108.59599 | 34794 ft | 396 kts | 244° |
| 2026-04-12 11:15 | 28.18860 | 108.56857 | 34521 ft | 388 kts | 244° |
| 2026-04-12 11:15 | 28.17639 | 108.54147 | 34243 ft | 387 kts | 245° |
| 2026-04-12 11:16 | 28.16426 | 108.51442 | 33956 ft | 388 kts | 245° |
| 2026-04-12 11:16 | 28.15198 | 108.48714 | 33679 ft | 389 kts | 245° |
| 2026-04-12 11:16 | 28.13965 | 108.45974 | 33402 ft | 390 kts | 244° |
| 2026-04-12 11:16 | 28.12731 | 108.43233 | 33132 ft | 391 kts | 244° |
| 2026-04-12 11:17 | 28.11485 | 108.40464 | 32854 ft | 391 kts | 244° |
| 2026-04-12 11:17 | 28.10255 | 108.37737 | 32581 ft | 392 kts | 244° |
| 2026-04-12 11:17 | 28.09007 | 108.34979 | 32310 ft | 393 kts | 244° |
| 2026-04-12 11:17 | 28.07766 | 108.32236 | 32083 ft | 394 kts | 244° |
| 2026-04-12 11:18 | 28.06520 | 108.29479 | 31853 ft | 393 kts | 245° |
| 2026-04-12 11:18 | 28.05276 | 108.26726 | 31618 ft | 391 kts | 244° |
| 2026-04-12 11:18 | 28.04026 | 108.23967 | 31385 ft | 389 kts | 245° |
| 2026-04-12 11:18 | 28.02796 | 108.21251 | 31147 ft | 387 kts | 245° |
| 2026-04-12 11:19 | 28.01571 | 108.18556 | 30911 ft | 384 kts | 245° |
| 2026-04-12 11:19 | 28.00357 | 108.15878 | 30676 ft | 381 kts | 246° |
| 2026-04-12 11:19 | 27.99159 | 108.13238 | 30446 ft | 378 kts | 245° |
| 2026-04-12 11:19 | 27.97947 | 108.10572 | 30216 ft | 376 kts | 246° |
| 2026-04-12 11:20 | 27.96747 | 108.07930 | 30006 ft | 373 kts | 246° |
| 2026-04-12 11:20 | 27.95570 | 108.05331 | 29969 ft | 372 kts | 246° |
| 2026-04-12 11:20 | 27.93209 | 108.00137 | 29960 ft | 372 kts | 246° |
| 2026-04-12 11:21 | 27.90841 | 107.94935 | 29959 ft | 372 kts | 246° |
| 2026-04-12 11:21 | 27.88459 | 107.89709 | 29818 ft | 373 kts | 246° |
| 2026-04-12 11:22 | 27.87274 | 107.87119 | 29629 ft | 370 kts | 245° |
| 2026-04-12 11:22 | 27.86092 | 107.84533 | 29420 ft | 367 kts | 246° |
| 2026-04-12 11:22 | 27.84926 | 107.81995 | 29188 ft | 365 kts | 246° |
| 2026-04-12 11:22 | 27.83754 | 107.79437 | 28954 ft | 362 kts | 247° |
| 2026-04-12 11:23 | 27.82605 | 107.76921 | 28723 ft | 365 kts | 246° |
| 2026-04-12 11:23 | 27.81435 | 107.74298 | 28486 ft | 371 kts | 247° |
| 2026-04-12 11:23 | 27.80275 | 107.71685 | 28249 ft | 373 kts | 246° |
| 2026-04-12 11:23 | 27.79119 | 107.69083 | 28015 ft | 374 kts | 246° |
| 2026-04-12 11:24 | 27.77950 | 107.66463 | 27783 ft | 374 kts | 246° |
| 2026-04-12 11:24 | 27.76779 | 107.63841 | 27566 ft | 375 kts | 246° |
| 2026-04-12 11:24 | 27.75593 | 107.61188 | 27490 ft | 375 kts | 247° |
| 2026-04-12 11:24 | 27.74416 | 107.58557 | 27481 ft | 376 kts | 246° |
| 2026-04-12 11:25 | 27.73235 | 107.55914 | 27480 ft | 377 kts | 246° |
| 2026-04-12 11:25 | 27.72048 | 107.53255 | 27482 ft | 377 kts | 246° |
| 2026-04-12 11:25 | 27.70865 | 107.50620 | 27475 ft | 377 kts | 247° |
| 2026-04-12 11:25 | 27.69686 | 107.47992 | 27470 ft | 377 kts | 246° |
| 2026-04-12 11:26 | 27.68495 | 107.45332 | 27478 ft | 377 kts | 246° |
| 2026-04-12 11:26 | 27.67314 | 107.42705 | 27480 ft | 377 kts | 246° |
| 2026-04-12 11:26 | 27.66133 | 107.40073 | 27476 ft | 377 kts | 246° |
| 2026-04-12 11:26 | 27.64936 | 107.37408 | 27480 ft | 377 kts | 246° |
| 2026-04-12 11:27 | 27.63749 | 107.34769 | 27480 ft | 377 kts | 246° |
| 2026-04-12 11:27 | 27.62570 | 107.32152 | 27477 ft | 377 kts | 246° |
| 2026-04-12 11:27 | 27.61385 | 107.29520 | 27249 ft | 377 kts | 246° |
| 2026-04-12 11:27 | 27.60199 | 107.26884 | 26929 ft | 370 kts | 246° |
| 2026-04-12 11:28 | 27.59041 | 107.24319 | 26627 ft | 364 kts | 246° |
| 2026-04-12 11:28 | 27.57900 | 107.21792 | 26320 ft | 358 kts | 246° |
| 2026-04-12 11:28 | 27.56781 | 107.19308 | 25977 ft | 358 kts | 246° |
| 2026-04-12 11:28 | 27.55653 | 107.16808 | 25624 ft | 360 kts | 246° |
| 2026-04-12 11:29 | 27.54513 | 107.14276 | 25263 ft | 360 kts | 246° |
| 2026-04-12 11:29 | 27.53388 | 107.11784 | 24866 ft | 360 kts | 246° |
| 2026-04-12 11:29 | 27.52253 | 107.09272 | 24465 ft | 360 kts | 246° |
| 2026-04-12 11:29 | 27.51108 | 107.06748 | 24054 ft | 360 kts | 246° |
| 2026-04-12 11:30 | 27.49962 | 107.04260 | 23650 ft | 361 kts | 243° |
| 2026-04-12 11:30 | 27.48378 | 107.02030 | 23241 ft | 370 kts | 228° |
| 2026-04-12 11:30 | 27.46237 | 107.00325 | 22842 ft | 381 kts | 213° |
| 2026-04-12 11:30 | 27.43704 | 106.99299 | 22442 ft | 394 kts | 198° |
| 2026-04-12 11:31 | 27.40933 | 106.99077 | 22027 ft | 403 kts | 185° |
| 2026-04-12 11:31 | 27.38108 | 106.99220 | 21613 ft | 401 kts | 184° |
| 2026-04-12 11:31 | 27.35334 | 106.99370 | 21208 ft | 399 kts | 183° |
| 2026-04-12 11:31 | 27.32560 | 106.99520 | 20803 ft | 396 kts | 183° |
| 2026-04-12 11:32 | 27.29826 | 106.99667 | 20398 ft | 394 kts | 183° |
| 2026-04-12 11:32 | 27.27071 | 106.99815 | 19978 ft | 391 kts | 183° |
| 2026-04-12 11:32 | 27.24375 | 106.99959 | 19582 ft | 389 kts | 182° |
| 2026-04-12 11:32 | 27.21665 | 107.00099 | 19188 ft | 386 kts | 182° |
| 2026-04-12 11:33 | 27.18992 | 107.00242 | 18785 ft | 384 kts | 182° |
| 2026-04-12 11:33 | 27.16317 | 107.00384 | 18379 ft | 381 kts | 181° |
| 2026-04-12 11:33 | 27.13664 | 107.00522 | 17967 ft | 379 kts | 181° |
| 2026-04-12 11:33 | 27.11021 | 107.00661 | 17558 ft | 377 kts | 181° |
| 2026-04-12 11:34 | 27.08417 | 107.00800 | 17163 ft | 375 kts | 181° |
| 2026-04-12 11:34 | 27.05790 | 107.00938 | 16772 ft | 373 kts | 181° |
| 2026-04-12 11:34 | 27.03199 | 107.01077 | 16384 ft | 371 kts | 180° |
| 2026-04-12 11:34 | 27.00649 | 107.01211 | 16016 ft | 368 kts | 180° |
| 2026-04-12 11:35 | 26.98083 | 107.01346 | 15666 ft | 365 kts | 180° |
| 2026-04-12 11:35 | 26.95530 | 107.01483 | 15311 ft | 361 kts | 180° |
| 2026-04-12 11:35 | 26.93046 | 107.01614 | 14961 ft | 358 kts | 180° |
| 2026-04-12 11:35 | 26.90534 | 107.01746 | 14724 ft | 351 kts | 180° |
| 2026-04-12 11:36 | 26.88132 | 107.01874 | 14698 ft | 337 kts | 180° |
| 2026-04-12 11:36 | 26.85852 | 107.01997 | 14696 ft | 324 kts | 180° |
| 2026-04-12 11:36 | 26.83629 | 107.02068 | 14690 ft | 310 kts | 184° |
| 2026-04-12 11:36 | 26.81502 | 107.01949 | 14692 ft | 296 kts | 188° |
| 2026-04-12 11:37 | 26.79493 | 107.01649 | 14683 ft | 283 kts | 193° |
| 2026-04-12 11:37 | 26.77606 | 107.01215 | 14682 ft | 271 kts | 195° |
| 2026-04-12 11:37 | 26.75774 | 107.00764 | 14603 ft | 263 kts | 195° |
| 2026-04-12 11:37 | 26.73995 | 107.00322 | 14368 ft | 262 kts | 195° |
| 2026-04-12 11:38 | 26.72206 | 106.99880 | 14073 ft | 263 kts | 195° |
| 2026-04-12 11:38 | 26.70408 | 106.99435 | 13770 ft | 265 kts | 194° |
| 2026-04-12 11:38 | 26.68578 | 106.98985 | 13465 ft | 266 kts | 194° |
| 2026-04-12 11:38 | 26.66768 | 106.98540 | 13159 ft | 267 kts | 194° |
| 2026-04-12 11:39 | 26.64942 | 106.98093 | 12845 ft | 268 kts | 194° |
| 2026-04-12 11:39 | 26.63120 | 106.97647 | 12536 ft | 269 kts | 194° |
| 2026-04-12 11:39 | 26.61264 | 106.97193 | 12226 ft | 270 kts | 194° |
| 2026-04-12 11:39 | 26.59414 | 106.96742 | 11915 ft | 271 kts | 194° |
| 2026-04-12 11:40 | 26.57557 | 106.96289 | 11610 ft | 271 kts | 194° |
| 2026-04-12 11:40 | 26.55713 | 106.95838 | 11351 ft | 270 kts | 194° |
| 2026-04-12 11:40 | 26.53888 | 106.95391 | 11089 ft | 269 kts | 193° |
| 2026-04-12 11:40 | 26.52060 | 106.94944 | 10827 ft | 268 kts | 194° |
| 2026-04-12 11:41 | 26.50234 | 106.94498 | 10567 ft | 267 kts | 193° |
| 2026-04-12 11:41 | 26.48419 | 106.94055 | 10309 ft | 266 kts | 193° |
| 2026-04-12 11:41 | 26.46605 | 106.93613 | 10051 ft | 265 kts | 193° |
| 2026-04-12 11:41 | 26.44807 | 106.93175 | 9796 ft | 264 kts | 193° |
| 2026-04-12 11:42 | 26.43001 | 106.92735 | 9534 ft | 263 kts | 193° |
| 2026-04-12 11:42 | 26.41208 | 106.92299 | 9271 ft | 262 kts | 193° |
| 2026-04-12 11:42 | 26.39412 | 106.91862 | 9013 ft | 261 kts | 193° |
| 2026-04-12 11:43 | 26.35861 | 106.91000 | 8502 ft | 260 kts | 193° |
| 2026-04-12 11:43 | 26.34086 | 106.90569 | 8308 ft | 257 kts | 193° |
| 2026-04-12 11:43 | 26.32338 | 106.90144 | 8125 ft | 253 kts | 192° |
| 2026-04-12 11:43 | 26.30635 | 106.89732 | 8012 ft | 247 kts | 192° |
| 2026-04-12 11:44 | 26.28970 | 106.89328 | 7973 ft | 237 kts | 192° |
| 2026-04-12 11:44 | 26.27375 | 106.88940 | 7962 ft | 233 kts | 192° |
| 2026-04-12 11:44 | 26.25781 | 106.88595 | 7963 ft | 234 kts | 191° |
| 2026-04-12 11:44 | 26.24153 | 106.88272 | 7854 ft | 234 kts | 190° |
| 2026-04-12 11:45 | 26.22553 | 106.87957 | 7732 ft | 233 kts | 190° |
| 2026-04-12 11:45 | 26.20933 | 106.87636 | 7605 ft | 234 kts | 191° |
| 2026-04-12 11:45 | 26.19430 | 106.86998 | 7466 ft | 234 kts | 219° |
| 2026-04-12 11:45 | 26.18477 | 106.85522 | 7343 ft | 238 kts | 251° |
| 2026-04-12 11:46 | 26.18372 | 106.83680 | 7229 ft | 243 kts | 277° |
| 2026-04-12 11:46 | 26.18684 | 106.81850 | 7119 ft | 243 kts | 279° |
| 2026-04-12 11:46 | 26.19008 | 106.79986 | 6996 ft | 243 kts | 279° |
| 2026-04-12 11:46 | 26.19322 | 106.78121 | 6961 ft | 243 kts | 278° |
| 2026-04-12 11:47 | 26.19736 | 106.76312 | 6941 ft | 242 kts | 296° |
| 2026-04-12 11:47 | 26.20834 | 106.74944 | 6927 ft | 233 kts | 329° |
| 2026-04-12 11:47 | 26.22348 | 106.74442 | 6945 ft | 231 kts | 358° |
| 2026-04-12 11:47 | 26.23970 | 106.74569 | 6961 ft | 231 kts | 9° |
| 2026-04-12 11:48 | 26.25552 | 106.74887 | 6959 ft | 232 kts | 12° |
| 2026-04-12 11:48 | 26.27110 | 106.75234 | 6943 ft | 221 kts | 11° |
| 2026-04-12 11:48 | 26.28598 | 106.75557 | 6930 ft | 210 kts | 11° |
| 2026-04-12 11:48 | 26.30049 | 106.75858 | 6937 ft | 211 kts | 11° |
| 2026-04-12 11:49 | 26.31472 | 106.76144 | 6942 ft | 202 kts | 11° |
| 2026-04-12 11:49 | 26.32845 | 106.76411 | 6942 ft | 196 kts | 11° |
| 2026-04-12 11:49 | 26.34178 | 106.76669 | 6942 ft | 189 kts | 11° |
| 2026-04-12 11:49 | 26.35446 | 106.76913 | 6894 ft | 180 kts | 11° |
| 2026-04-12 11:50 | 26.36675 | 106.77150 | 6684 ft | 175 kts | 10° |
| 2026-04-12 11:50 | 26.37856 | 106.77379 | 6461 ft | 169 kts | 10° |
| 2026-04-12 11:50 | 26.38986 | 106.77598 | 6245 ft | 163 kts | 10° |
| 2026-04-12 11:50 | 26.40125 | 106.77818 | 6045 ft | 163 kts | 11° |
| 2026-04-12 11:51 | 26.41241 | 106.78036 | 5845 ft | 163 kts | 11° |
| 2026-04-12 11:51 | 26.42356 | 106.78252 | 5643 ft | 161 kts | 11° |
| 2026-04-12 11:51 | 26.43457 | 106.78466 | 5440 ft | 160 kts | 11° |
| 2026-04-12 11:51 | 26.44562 | 106.78681 | 5236 ft | 159 kts | 12° |
| 2026-04-12 11:52 | 26.45663 | 106.78896 | 5032 ft | 158 kts | 12° |
| 2026-04-12 11:52 | 26.46742 | 106.79106 | 4829 ft | 157 kts | 12° |
| 2026-04-12 11:52 | 26.47822 | 106.79318 | 4623 ft | 155 kts | 12° |
| 2026-04-12 11:52 | 26.48886 | 106.79525 | 4429 ft | 155 kts | 12° |
| 2026-04-12 11:53 | 26.49941 | 106.79731 | 4237 ft | 154 kts | 13° |
| 2026-04-12 11:53 | 26.51005 | 106.79939 | 4040 ft | 152 kts | 12° |
| 2026-04-12 11:53 | 26.52044 | 106.80142 | 3858 ft | 151 kts | 13° |
| 2026-04-12 11:53 | 26.53074 | 106.80342 | 3754 ft | 143 kts | 13° |
| 2026-04-12 11:54 | 26.53915 | 106.80509 | 3753 ft | 95 kts | 10° |
| 2026-04-12 11:54 | 26.54398 | 106.80603 | 3754 ft | 49 kts | 10° |
| 2026-04-12 11:54 | 26.54609 | 106.80643 | 3754 ft | 11 kts | 10° |
| 2026-04-12 11:54 | 26.54661 | 106.80653 | 3754 ft | 3 kts | 0° |
| 2026-04-12 11:55 | 26.54684 | 106.80640 | 3754 ft | 4 kts | 313° |
| 2026-04-12 11:55 | 26.54698 | 106.80602 | 3754 ft | 6 kts | 285° |
| 2026-04-12 11:55 | 26.54707 | 106.80550 | 3754 ft | 7 kts | 280° |
| 2026-04-12 11:55 | 26.54713 | 106.80512 | 3754 ft | 2 kts | 281° |
| 2026-04-12 11:56 | 26.54722 | 106.80495 | 3754 ft | 3 kts | 320° |
| 2026-04-12 11:56 | 26.54749 | 106.80486 | 3754 ft | 4 kts | 355° |
| 2026-04-12 11:56 | 26.54786 | 106.80489 | 3754 ft | 6 kts | 11° |
| 2026-04-12 11:56 | 26.54837 | 106.80500 | 3754 ft | 8 kts | 10° |
| 2026-04-12 11:57 | 26.54904 | 106.80513 | 3754 ft | 10 kts | 10° |
| 2026-04-12 11:57 | 26.54983 | 106.80528 | 3754 ft | 12 kts | 10° |
| 2026-04-12 11:57 | 26.55067 | 106.80545 | 3754 ft | 12 kts | 10° |
| 2026-04-12 11:57 | 26.55155 | 106.80562 | 3754 ft | 12 kts | 10° |
| 2026-04-12 11:58 | 26.55244 | 106.80579 | 3754 ft | 13 kts | 10° |
| 2026-04-12 11:58 | 26.55334 | 106.80597 | 3754 ft | 13 kts | 10° |
| 2026-04-12 11:58 | 26.55409 | 106.80611 | 3754 ft | 4 kts | 9° |
| 2026-04-12 11:58 | 26.55444 | 106.80616 | 3754 ft | 4 kts | 354° |
| 2026-04-12 11:59 | 26.55471 | 106.80589 | 3754 ft | 6 kts | 296° |
| 2026-04-12 11:59 | 26.55482 | 106.80537 | 3754 ft | 7 kts | 281° |
| 2026-04-12 11:59 | 26.55492 | 106.80474 | 3754 ft | 8 kts | 280° |
| 2026-04-12 11:59 | 26.55503 | 106.80404 | 3754 ft | 9 kts | 281° |
| 2026-04-12 12:00 | 26.55517 | 106.80326 | 3754 ft | 10 kts | 281° |
| 2026-04-12 12:00 | 26.55530 | 106.80250 | 3754 ft | 7 kts | 281° |
| 2026-04-12 12:00 | 26.55536 | 106.80220 | 3754 ft | 0 kts | 282° |
| 2026-04-12 12:00 | 26.55536 | 106.80216 | 3754 ft | 1 kts | 277° |
| 2026-04-12 12:01 | 26.55535 | 106.80201 | 3754 ft | 2 kts | 259° |
| 2026-04-12 12:01 | 26.55523 | 106.80183 | 3754 ft | 3 kts | 212° |
| 2026-04-12 12:01 | 26.55493 | 106.80175 | 3754 ft | 5 kts | 191° |
| 2026-04-12 12:01 | 26.55452 | 106.80167 | 3754 ft | 6 kts | 190° |
| 2026-04-12 12:02 | 26.55403 | 106.80157 | 3754 ft | 7 kts | 190° |
| 2026-04-12 12:02 | 26.55349 | 106.80145 | 3754 ft | 8 kts | 190° |
| 2026-04-12 12:02 | 26.55288 | 106.80133 | 3754 ft | 9 kts | 190° |
| 2026-04-12 12:02 | 26.55221 | 106.80121 | 3754 ft | 10 kts | 189° |
| 2026-04-12 12:03 | 26.55155 | 106.80108 | 3754 ft | 8 kts | 190° |
| 2026-04-12 12:03 | 26.55105 | 106.80098 | 3754 ft | 1 kts | 190° |
| 2026-04-12 12:03 | 26.55090 | 106.80095 | 3754 ft | 0 kts | 189° |
| 2026-04-12 12:03 | 26.55085 | 106.80094 | 3754 ft | 1 kts | 190° |
| 2026-04-12 12:04 | 26.55070 | 106.80091 | 3754 ft | 3 kts | 189° |
| 2026-04-12 12:04 | 26.55050 | 106.80084 | 3754 ft | 3 kts | 207° |
| 2026-04-12 12:04 | 26.55042 | 106.80079 | 3754 ft | 1 kts | 212° |
| 2026-04-12 12:04 | 26.55035 | 106.80072 | 3754 ft | 1 kts | 238° |
| 2026-04-12 12:05 | 26.55030 | 106.80055 | 3754 ft | 2 kts | 251° |
| 2026-04-12 12:05 | 26.55023 | 106.80033 | 3754 ft | 2 kts | 250° |
| 2026-04-12 12:05 | 26.55017 | 106.80014 | 3754 ft | 2 kts | 250° |
| 2026-04-12 12:05 | 26.55013 | 106.80000 | 3754 ft | 1 kts | 250° |
| 2026-04-12 12:06 | 26.55010 | 106.79991 | 3754 ft | 0 kts | 250° |
| 2026-04-12 12:06 | 26.55008 | 106.79985 | 3754 ft | 0 kts | 250° |
| 2026-04-12 12:06 | 26.55007 | 106.79982 | 3754 ft | 0 kts | 250° |